Dothan Regional Airport Dothan US
ICAO: KDHN
IATA: DHN
Category: Medium
Scheduled Services: Yes

Elevation: 401 ft
TransAlt. 18000 ft.

Airport Communications:
CAIRNS APP/DEP:125.4
ATIS:135.72
CTAF:118.4
GND:121.7
VFR ADVSY SVC:118.4
ANNISTON RDO:122.2
TWR:118.4
UNICOM:122.95

KDHN Zoom In..

Runways:

(A) RW 14 length 8499 ft width 150 ft
ILS 110.75 / hdg 138

(B) RW 18 length 5498 ft width 100 ft
---- / hdg 183

(C) RW 32 length 8499 ft width 150 ft
ILS 108.30 / hdg 318

(D) RW 36 length 5498 ft width 100 ft
---- / hdg 3

Location; KDHN
Day. 11 / Time. 11.53 Zulu
* Altimeter: 30.06
* Temperature: 24° c. 75.2°f.
* Wind from: 230° Speed 05 kn.
Dewpoint: 23° c.
Visibility: 10 Statute Miles.
Clouds: Clear (automated report).

KDHN 111153Z 23005KT 10SM CLR 24/23 A3006 RMK AO2 LTG DSNT E SLP172 70129 T02390228 10239 20222 51003

Going to: --> -->


Wind From 230°
Speed 05 kn.

 
 
jpsmedia worldairports.se 2020   terms of use